createdAt,value
2018-12-06T00:00:20.829Z,14.18
2018-12-06T00:02:22.952Z,12.47
2018-12-06T00:04:25.179Z,11.12
2018-12-06T00:06:27.301Z,13.75
2018-12-06T00:08:29.668Z,11.53
2018-12-06T00:10:31.780Z,14.00
2018-12-06T00:12:33.904Z,10.82
2018-12-06T00:14:36.049Z,11.90
2018-12-06T00:16:38.152Z,13.22
2018-12-06T00:18:40.268Z,12.73
2018-12-06T00:20:42.452Z,13.85
2018-12-06T00:22:44.585Z,15.08
2018-12-06T00:24:46.695Z,19.85
2018-12-06T00:26:48.820Z,14.43
2018-12-06T00:28:51.025Z,15.38
2018-12-06T00:30:53.150Z,11.05
2018-12-06T00:32:55.248Z,13.08
2018-12-06T00:34:57.369Z,16.27
2018-12-06T00:36:59.611Z,14.33
2018-12-06T00:39:01.835Z,18.37
2018-12-06T00:41:03.972Z,14.73
2018-12-06T00:43:06.124Z,12.43
2018-12-06T00:45:08.336Z,13.98
2018-12-06T00:47:10.451Z,13.38
2018-12-06T00:49:12.675Z,13.18
2018-12-06T00:51:14.908Z,12.33
2018-12-06T00:53:17.195Z,14.25
2018-12-06T00:55:19.324Z,11.85
2018-12-06T00:57:21.449Z,8.23
2018-12-06T00:59:23.908Z,11.15
2018-12-06T01:01:26.017Z,13.10
2018-12-06T01:03:28.136Z,12.93
2018-12-06T01:05:30.466Z,14.13
2018-12-06T01:07:32.699Z,17.32
2018-12-06T01:09:34.916Z,22.17
2018-12-06T01:11:39.400Z,14.30
2018-12-06T01:13:41.520Z,11.85
2018-12-06T01:15:43.631Z,15.10
2018-12-06T01:17:45.873Z,10.70
2018-12-06T01:19:47.989Z,12.33
2018-12-06T01:21:50.109Z,11.73
2018-12-06T01:23:52.303Z,14.78
2018-12-06T01:25:54.430Z,13.70
2018-12-06T01:27:56.549Z,13.15
2018-12-06T01:29:58.776Z,9.70
2018-12-06T01:32:00.879Z,10.63
2018-12-06T01:34:03.132Z,13.10
2018-12-06T01:36:05.386Z,11.33
2018-12-06T01:38:07.548Z,14.65
2018-12-06T01:40:09.656Z,14.55
2018-12-06T01:42:11.871Z,19.90
2018-12-06T01:44:13.979Z,11.25
2018-12-06T01:46:16.088Z,16.60
2018-12-06T01:48:18.378Z,11.65
2018-12-06T01:50:20.564Z,13.20
2018-12-06T01:52:22.780Z,17.25
2018-12-06T01:54:25.543Z,11.95
2018-12-06T01:56:27.680Z,10.82
2018-12-06T01:58:29.787Z,14.83
2018-12-06T02:00:32.248Z,15.10
2018-12-06T02:02:34.368Z,10.85
2018-12-06T02:04:36.472Z,15.98
2018-12-06T02:06:38.856Z,16.55
2018-12-06T02:08:40.976Z,11.80
2018-12-06T02:10:43.236Z,14.20
2018-12-06T02:12:45.631Z,14.75
2018-12-06T02:14:47.866Z,15.98
2018-12-06T02:16:50.184Z,11.00
2018-12-06T02:18:52.737Z,10.23
2018-12-06T02:20:54.952Z,10.58
2018-12-06T02:22:57.068Z,14.05
2018-12-06T02:24:59.335Z,13.62
2018-12-06T02:27:01.681Z,15.43
2018-12-06T02:29:03.811Z,16.07
2018-12-06T02:31:06.041Z,14.75
2018-12-06T02:33:08.170Z,13.28
2018-12-06T02:35:10.438Z,15.72
2018-12-06T02:37:12.672Z,14.20
2018-12-06T02:39:14.887Z,16.02
2018-12-06T02:41:17.357Z,14.18
2018-12-06T02:43:19.476Z,21.77
2018-12-06T02:45:21.583Z,12.95
2018-12-06T02:47:23.704Z,18.40
2018-12-06T02:49:25.812Z,14.90
2018-12-06T02:51:27.929Z,13.98
2018-12-06T02:53:30.073Z,12.70
2018-12-06T02:55:32.227Z,14.58
2018-12-06T02:57:34.325Z,13.62
2018-12-06T02:59:36.523Z,11.93
2018-12-06T03:01:38.638Z,10.93
2018-12-06T03:03:40.747Z,11.78
2018-12-06T03:05:42.980Z,15.78
2018-12-06T03:07:45.112Z,13.65
2018-12-06T03:09:47.441Z,11.85
2018-12-06T03:11:49.670Z,15.23
2018-12-06T03:13:51.953Z,19.25
2018-12-06T03:15:54.063Z,18.20
2018-12-06T03:17:56.182Z,15.23
2018-12-06T03:19:58.338Z,22.50
2018-12-06T03:22:00.551Z,19.05
2018-12-06T03:24:02.783Z,20.97
2018-12-06T03:26:04.901Z,17.70
2018-12-06T03:28:07.008Z,15.88
2018-12-06T03:30:09.359Z,16.87
2018-12-06T03:32:11.673Z,19.25
2018-12-06T03:34:13.792Z,16.62
2018-12-06T03:36:15.923Z,13.32
2018-12-06T03:38:18.312Z,21.27
2018-12-06T03:40:20.428Z,21.55
2018-12-06T03:42:22.548Z,15.68
2018-12-06T03:44:24.924Z,16.00
2018-12-06T03:46:27.179Z,14.98
2018-12-06T03:48:29.293Z,16.67
2018-12-06T03:50:31.436Z,22.30
2018-12-06T03:52:33.752Z,18.73
2018-12-06T03:54:35.984Z,19.32
2018-12-06T03:56:38.424Z,19.37
2018-12-06T03:58:40.531Z,14.90
2018-12-06T04:00:42.653Z,20.35
2018-12-06T04:02:44.937Z,16.87
2018-12-06T04:04:47.162Z,23.15
2018-12-06T04:06:49.384Z,19.37
2018-12-06T04:08:51.611Z,16.77
2018-12-06T04:10:53.845Z,22.80
2018-12-06T04:12:55.963Z,15.35
2018-12-06T04:14:58.078Z,17.17
2018-12-06T04:17:00.615Z,18.55
2018-12-06T04:19:02.820Z,19.32
2018-12-06T04:21:04.932Z,19.45
2018-12-06T04:23:07.164Z,18.87
2018-12-06T04:25:09.290Z,18.50
2018-12-06T04:27:11.772Z,16.55
2018-12-06T04:29:14.096Z,17.05
2018-12-06T04:31:16.212Z,16.75
2018-12-06T04:33:18.696Z,17.70
2018-12-06T04:35:20.809Z,16.45
2018-12-06T04:37:23.020Z,19.73
2018-12-06T04:39:25.174Z,19.40
2018-12-06T04:41:27.435Z,24.43
2018-12-06T04:43:29.545Z,28.12
2018-12-06T04:45:31.907Z,19.05
2018-12-06T04:47:34.133Z,22.25
2018-12-06T04:49:36.353Z,23.07
2018-12-06T04:51:38.574Z,21.42
2018-12-06T04:53:40.783Z,20.02
2018-12-06T04:55:43.143Z,18.90
2018-12-06T04:57:45.396Z,19.60
2018-12-06T04:59:47.535Z,20.12
2018-12-06T05:01:49.913Z,19.80
2018-12-06T05:03:52.286Z,20.02
2018-12-06T05:05:54.537Z,17.35
2018-12-06T05:07:56.850Z,25.60
2018-12-06T05:09:58.997Z,22.17
2018-12-06T05:12:01.131Z,23.52
2018-12-06T05:14:03.373Z,25.10
2018-12-06T05:16:05.612Z,26.10
2018-12-06T05:18:07.744Z,21.00
2018-12-06T05:20:09.884Z,20.20
2018-12-06T05:22:12.008Z,18.00
2018-12-06T05:24:14.208Z,21.80
2018-12-06T05:26:16.320Z,23.10
2018-12-06T05:28:18.475Z,27.90
2018-12-06T05:30:21.673Z,21.12
2018-12-06T05:32:23.785Z,24.23
2018-12-06T05:34:25.908Z,21.77
2018-12-06T05:36:28.032Z,18.23
2018-12-06T05:38:30.188Z,29.02
2018-12-06T05:40:32.428Z,25.08
2018-12-06T05:42:34.681Z,24.05
2018-12-06T05:44:37.175Z,23.87
2018-12-06T05:46:39.316Z,23.20
2018-12-06T05:48:41.415Z,18.65
2018-12-06T05:50:43.528Z,28.47
2018-12-06T05:52:45.652Z,23.10
2018-12-06T05:54:47.756Z,23.32
2018-12-06T05:56:49.885Z,22.80
2018-12-06T05:58:52.247Z,31.93
2018-12-06T06:00:54.380Z,25.92
2018-12-06T06:02:56.531Z,26.60
2018-12-06T06:04:59.010Z,24.30
2018-12-06T06:07:01.249Z,24.37
2018-12-06T06:09:05.112Z,24.85
2018-12-06T06:11:07.296Z,21.70
2018-12-06T06:13:09.419Z,28.67
2018-12-06T06:15:11.676Z,22.77
2018-12-06T06:17:14.192Z,28.85
2018-12-06T06:19:16.360Z,25.00
2018-12-06T06:21:19.225Z,23.35
2018-12-06T06:23:21.356Z,22.17
2018-12-06T06:25:23.820Z,30.37
2018-12-06T06:27:26.425Z,27.48
2018-12-06T06:29:28.712Z,23.05
2018-12-06T06:31:30.831Z,26.30
2018-12-06T06:33:32.956Z,24.90
2018-12-06T06:35:35.208Z,24.55
2018-12-06T06:37:37.484Z,24.32
2018-12-06T06:44:24.509Z,27.20
2018-12-06T06:46:26.665Z,22.70
2018-12-06T06:48:28.807Z,26.23
2018-12-06T06:50:30.964Z,23.52
2018-12-06T06:52:33.125Z,27.32
2018-12-06T06:54:35.899Z,25.75
2018-12-06T06:56:38.211Z,28.20
2018-12-06T06:58:54.636Z,30.57
2018-12-06T07:00:56.879Z,26.37
2018-12-06T07:03:12.780Z,28.70
2018-12-06T07:05:15.055Z,26.87
2018-12-06T07:07:17.388Z,25.32
2018-12-06T07:09:19.807Z,26.95
2018-12-06T07:16:04.312Z,25.88
2018-12-06T07:18:06.665Z,26.90
2018-12-06T07:20:08.839Z,25.70
2018-12-06T07:22:11.065Z,28.65
2018-12-06T07:24:13.456Z,28.95
2018-12-06T07:26:15.599Z,28.00
2018-12-06T07:28:20.771Z,30.55
2018-12-06T07:30:22.936Z,29.42
2018-12-06T07:32:25.217Z,27.98
2018-12-06T07:34:27.472Z,31.10
2018-12-06T07:36:29.672Z,35.58
2018-12-06T07:38:31.985Z,29.95
2018-12-06T07:40:34.277Z,30.23
2018-12-06T07:42:36.540Z,34.50
2018-12-06T07:44:38.705Z,33.25
2018-12-06T07:46:41.412Z,34.00
2018-12-06T07:48:43.576Z,36.35
2018-12-06T07:50:45.725Z,35.13
2018-12-06T07:52:47.955Z,33.67
2018-12-06T07:54:50.111Z,30.85
2018-12-06T07:56:52.335Z,31.37
2018-12-06T07:58:54.505Z,35.28
2018-12-06T08:00:56.944Z,32.42
2018-12-06T08:02:59.084Z,35.65
2018-12-06T08:05:01.270Z,40.20
2018-12-06T08:07:03.579Z,33.02
2018-12-06T08:09:06.965Z,33.48
2018-12-06T08:11:09.151Z,32.25
2018-12-06T08:13:11.362Z,35.43
2018-12-06T08:15:13.511Z,39.78
2018-12-06T08:17:15.884Z,41.88
2018-12-06T08:19:18.032Z,42.43
2018-12-06T08:21:20.221Z,45.83
2018-12-06T08:23:22.400Z,39.90
2018-12-06T08:25:24.902Z,39.10
2018-12-06T08:27:27.252Z,44.83
2018-12-06T08:29:29.494Z,45.10
2018-12-06T08:31:31.868Z,48.05
2018-12-06T08:33:34.023Z,51.08
2018-12-06T08:35:36.252Z,45.12
2018-12-06T08:37:38.452Z,48.75
2018-12-06T08:39:40.742Z,53.08
2018-12-06T08:41:43.143Z,57.67
2018-12-06T08:43:45.476Z,56.60
2018-12-06T08:45:47.652Z,61.35
2018-12-06T08:47:49.803Z,58.00
2018-12-06T08:49:52.012Z,57.05
2018-12-06T08:51:54.186Z,57.55
2018-12-06T08:53:56.341Z,54.50
2018-12-06T08:55:58.586Z,56.08
2018-12-06T08:58:00.848Z,53.45
2018-12-06T09:00:03.383Z,56.48
2018-12-06T09:02:05.720Z,52.45
2018-12-06T09:04:07.949Z,67.95
2018-12-06T09:06:10.222Z,56.15
2018-12-06T09:08:12.545Z,57.58
2018-12-06T09:10:14.783Z,55.38
2018-12-06T09:12:17.119Z,70.30
2018-12-06T09:14:19.296Z,55.28
2018-12-06T09:16:21.453Z,59.83
2018-12-06T09:18:23.829Z,57.50
2018-12-06T09:20:26.025Z,59.20
2018-12-06T09:22:28.168Z,52.60
2018-12-06T09:24:30.836Z,55.40
2018-12-06T09:26:33.193Z,56.68
2018-12-06T09:28:35.387Z,49.35
2018-12-06T09:30:37.720Z,61.42
2018-12-06T09:32:39.965Z,57.85
2018-12-06T09:34:42.086Z,58.55
2018-12-06T09:36:44.533Z,56.65
2018-12-06T09:38:46.933Z,54.88
2018-12-06T09:40:49.340Z,53.02
2018-12-06T09:42:51.848Z,52.55
2018-12-06T09:44:54.063Z,60.80
2018-12-06T09:46:56.228Z,57.35
2018-12-06T09:48:58.577Z,56.08
2018-12-06T09:51:00.884Z,59.98
2018-12-06T09:53:03.377Z,57.75
2018-12-06T09:55:05.669Z,52.73
2018-12-06T09:57:07.911Z,57.30
2018-12-06T09:59:10.194Z,54.05
2018-12-06T10:01:12.464Z,56.75
2018-12-06T10:03:14.624Z,56.63
2018-12-06T10:05:18.558Z,57.30
2018-12-06T10:07:21.362Z,59.67
2018-12-06T10:09:23.532Z,57.27
2018-12-06T10:11:25.749Z,51.48
2018-12-06T10:13:28.015Z,52.17
2018-12-06T10:15:30.375Z,51.00
2018-12-06T10:17:32.532Z,58.70
2018-12-06T10:19:34.956Z,55.78
2018-12-06T10:21:37.216Z,54.77
2018-12-06T10:23:39.526Z,56.90
2018-12-06T10:25:41.972Z,57.65
2018-12-06T10:27:44.176Z,52.93
2018-12-06T10:29:46.325Z,66.22
2018-12-06T10:31:48.493Z,68.35
2018-12-06T10:33:51.560Z,67.35
2018-12-06T10:35:53.708Z,63.23
2018-12-06T10:37:55.996Z,71.90
2018-12-06T10:39:58.160Z,77.53
2018-12-06T10:42:00.325Z,69.10
2018-12-06T10:44:02.720Z,76.22
2018-12-06T10:46:05.156Z,81.32
2018-12-06T10:48:07.412Z,87.57
2018-12-06T10:50:09.588Z,88.10
2018-12-06T10:52:12.242Z,76.00
2018-12-06T10:54:14.713Z,77.87
2018-12-06T10:56:16.903Z,90.17
2018-12-06T10:58:19.512Z,77.12
2018-12-06T11:00:27.593Z,79.35
2018-12-06T11:02:55.620Z,83.03
2018-12-06T11:04:57.954Z,70.00
2018-12-06T11:07:00.105Z,79.72
2018-12-06T11:09:04.220Z,94.62
2018-12-06T11:11:06.544Z,79.95
2018-12-06T11:13:08.706Z,78.17
2018-12-06T11:15:10.855Z,90.20
2018-12-06T11:17:13.057Z,71.47
2018-12-06T11:19:15.317Z,84.07
2018-12-06T11:21:17.600Z,82.12
2018-12-06T11:23:20.016Z,89.95
2018-12-06T11:25:22.197Z,88.67
2018-12-06T11:27:24.444Z,87.15
2018-12-06T11:29:26.632Z,93.90
2018-12-06T11:31:28.806Z,90.07
2018-12-06T11:33:31.075Z,87.97
2018-12-06T11:35:33.488Z,81.85
2018-12-06T11:37:35.667Z,94.00
2018-12-06T11:39:37.837Z,89.17
2018-12-06T11:41:43.265Z,93.90
2018-12-06T11:43:44.418Z,86.22
2018-12-06T11:45:46.718Z,83.03
2018-12-06T11:47:48.916Z,79.65
2018-12-06T11:49:51.237Z,78.22
2018-12-06T11:51:53.515Z,81.32
2018-12-06T11:53:55.782Z,77.72
2018-12-06T11:55:57.986Z,78.07
2018-12-06T11:58:00.182Z,71.97
2018-12-06T12:00:03.098Z,79.42
2018-12-06T12:02:10.058Z,76.60
2018-12-06T12:04:09.686Z,78.37
2018-12-06T12:06:11.875Z,74.50
2018-12-06T12:08:14.230Z,81.82
2018-12-06T12:10:16.404Z,76.00
2018-12-06T12:12:18.572Z,74.27
2018-12-06T12:14:20.804Z,76.05
2018-12-06T12:16:22.976Z,84.50
2018-12-06T12:18:25.140Z,88.55
2018-12-06T12:20:27.603Z,83.27
2018-12-06T12:22:29.769Z,78.30
2018-12-06T12:24:31.930Z,78.28
2018-12-06T12:26:34.299Z,91.12
2018-12-06T12:28:36.519Z,85.92
2018-12-06T12:30:38.757Z,84.20
2018-12-06T12:32:41.081Z,97.33
2018-12-06T12:34:43.257Z,90.80
2018-12-06T12:36:45.430Z,91.43
2018-12-06T12:38:48.123Z,97.88
2018-12-06T12:40:50.695Z,89.33
2018-12-06T12:42:53.003Z,90.10
2018-12-06T12:44:55.479Z,90.25
2018-12-06T12:46:57.665Z,93.53
2018-12-06T12:49:00.326Z,82.40
2018-12-06T12:51:02.600Z,89.33
2018-12-06T12:53:04.857Z,82.63
2018-12-06T12:55:07.153Z,86.13
2018-12-06T12:57:09.321Z,100.90
2018-12-06T12:59:11.609Z,84.53
2018-12-06T13:01:14.068Z,83.50
2018-12-06T13:03:16.357Z,94.73
2018-12-06T13:05:18.510Z,80.73
2018-12-06T13:07:20.725Z,93.37
2018-12-06T13:09:25.871Z,83.03
2018-12-06T13:11:28.034Z,91.67
2018-12-06T13:13:30.356Z,82.43
2018-12-06T13:15:32.676Z,85.93
2018-12-06T13:17:34.945Z,81.93
2018-12-06T13:25:36.768Z,98.60
2018-12-06T13:27:39.153Z,99.00
2018-12-06T13:29:41.461Z,96.67
2018-12-06T13:31:43.842Z,103.60
2018-12-06T13:33:46.124Z,100.03
2018-12-06T13:35:48.263Z,108.03
2018-12-06T13:37:50.748Z,116.47
2018-12-06T13:39:56.247Z,98.33
2018-12-06T13:41:58.508Z,109.23
2018-12-06T13:44:00.672Z,99.37
2018-12-06T13:46:03.199Z,105.23
2018-12-06T13:48:05.651Z,120.37
2018-12-06T13:50:07.947Z,123.77
2018-12-06T13:52:10.121Z,111.43
2018-12-06T13:54:12.510Z,123.17
2018-12-06T13:56:14.695Z,104.03
2018-12-06T13:58:16.875Z,110.50
2018-12-06T14:00:19.053Z,121.53
2018-12-06T14:02:21.298Z,110.90
2018-12-06T14:04:23.586Z,86.90
2018-12-06T14:06:25.734Z,108.07
2018-12-06T14:08:39.936Z,109.17
2018-12-06T14:10:42.776Z,95.50
2018-12-06T14:12:44.992Z,104.53
2018-12-06T14:14:47.231Z,108.70
2018-12-06T14:16:49.759Z,107.73
2018-12-06T14:18:51.944Z,92.67
2018-12-06T14:20:54.121Z,110.80
2018-12-06T14:22:56.420Z,104.60
2018-12-06T14:24:58.610Z,119.57
2018-12-06T14:27:00.813Z,114.20
2018-12-06T14:29:03.379Z,114.63
2018-12-06T14:31:05.676Z,116.17
2018-12-06T14:33:07.856Z,120.20
2018-12-06T14:35:11.987Z,124.10
2018-12-06T14:37:14.150Z,110.03
2018-12-06T14:39:16.460Z,123.00
2018-12-06T14:41:18.916Z,109.93
2018-12-06T14:43:21.232Z,121.63
2018-12-06T14:45:23.496Z,130.67
2018-12-06T14:47:25.925Z,140.20
2018-12-06T14:49:28.200Z,139.77
2018-12-06T14:51:30.436Z,156.63
2018-12-06T14:53:32.786Z,172.43
2018-12-06T14:55:40.810Z,151.90
2018-12-06T14:57:43.068Z,147.27
2018-12-06T14:59:45.379Z,114.17
2018-12-06T15:01:47.669Z,131.77
2018-12-06T15:03:49.972Z,103.67
2018-12-06T15:05:52.177Z,122.43
2018-12-06T15:07:54.372Z,129.67
2018-12-06T15:09:56.578Z,110.77
2018-12-06T15:11:58.788Z,156.47
2018-12-06T15:14:00.984Z,162.60
2018-12-06T15:16:03.232Z,125.13
2018-12-06T15:18:05.422Z,141.90
2018-12-06T15:20:07.732Z,139.17
2018-12-06T15:22:09.941Z,144.57
2018-12-06T15:24:12.260Z,146.73
2018-12-06T15:26:14.471Z,126.37
2018-12-06T15:28:16.625Z,165.37
2018-12-06T15:30:18.984Z,161.67
2018-12-06T15:32:21.174Z,151.57
2018-12-06T15:34:23.354Z,156.70
2018-12-06T15:36:26.496Z,114.93
2018-12-06T15:38:28.807Z,159.03
2018-12-06T15:40:31.112Z,164.23
2018-12-06T15:42:33.333Z,112.00
2018-12-06T15:44:35.532Z,131.33
2018-12-06T15:46:37.799Z,139.33
2018-12-06T15:48:40.030Z,120.23
2018-12-06T15:50:42.202Z,118.37
2018-12-06T15:52:44.392Z,141.83
2018-12-06T15:57:08.218Z,124.37
2018-12-06T15:59:10.455Z,122.47
2018-12-06T16:01:12.667Z,108.07
2018-12-06T16:03:14.856Z,120.80
2018-12-06T16:05:17.006Z,125.27
2018-12-06T16:07:19.235Z,122.50
2018-12-06T16:09:21.465Z,119.63
2018-12-06T16:11:23.660Z,120.97
2018-12-06T16:13:26.004Z,104.57
2018-12-06T16:15:28.157Z,122.33
2018-12-06T16:17:30.366Z,122.73
2018-12-06T16:19:32.719Z,112.50
2018-12-06T16:21:35.018Z,105.30
2018-12-06T16:23:37.221Z,104.17
2018-12-06T16:25:39.857Z,94.30
2018-12-06T16:27:42.026Z,106.70
2018-12-06T16:29:51.374Z,94.93
2018-12-06T16:31:48.891Z,98.37
2018-12-06T16:33:51.259Z,90.43
2018-12-06T16:35:53.463Z,92.50
2018-12-06T16:37:55.783Z,108.43
2018-12-06T16:39:58.077Z,89.77
2018-12-06T16:42:00.335Z,96.03
2018-12-06T16:44:03.235Z,94.93
2018-12-06T16:46:05.560Z,90.97
2018-12-06T16:48:07.767Z,83.77
2018-12-06T16:50:10.068Z,90.57
2018-12-06T16:52:12.535Z,87.07
2018-12-06T16:54:14.795Z,92.90
2018-12-06T16:56:29.930Z,92.30
2018-12-06T16:58:32.263Z,94.40
2018-12-06T17:00:34.443Z,73.57
2018-12-06T17:02:36.784Z,85.23
2018-12-06T17:04:38.986Z,76.63
2018-12-06T17:06:41.183Z,85.03
2018-12-06T17:08:43.377Z,86.07
2018-12-06T17:10:45.560Z,90.10
2018-12-06T17:12:47.777Z,84.23
2018-12-06T17:14:49.960Z,79.97
2018-12-06T17:16:52.201Z,96.33
2018-12-06T17:18:54.387Z,85.33
2018-12-06T17:20:56.756Z,84.00
2018-12-06T17:22:59.076Z,93.57
2018-12-06T17:25:01.344Z,82.97
2018-12-06T17:39:02.131Z,74.33
2018-12-06T17:41:04.351Z,74.20
2018-12-06T17:43:06.726Z,81.17
2018-12-06T17:45:09.713Z,61.10
2018-12-06T17:47:11.946Z,71.87
2018-12-06T17:49:14.275Z,79.03
2018-12-06T17:51:16.523Z,66.40
2018-12-06T17:53:18.727Z,67.60
2018-12-06T17:55:21.584Z,66.87
2018-12-06T17:57:23.808Z,62.87
2018-12-06T17:59:26.053Z,74.73
2018-12-06T18:01:28.497Z,58.27
2018-12-06T18:03:30.763Z,59.97
2018-12-06T18:05:33.063Z,56.23
2018-12-06T18:07:35.351Z,63.03
2018-12-06T18:09:37.773Z,61.43
2018-12-06T18:11:40.650Z,58.93
2018-12-06T18:13:43.139Z,59.50
2018-12-06T18:15:45.630Z,69.53
2018-12-06T18:17:48.228Z,64.97
2018-12-06T18:19:50.525Z,62.00
2018-12-06T18:21:52.858Z,65.60
2018-12-06T18:23:55.299Z,63.47
2018-12-06T18:25:57.516Z,60.70
2018-12-06T18:27:59.833Z,54.83
2018-12-06T18:30:02.298Z,77.30
2018-12-06T18:32:05.143Z,63.67
2018-12-06T18:34:08.355Z,72.43
2018-12-06T18:36:10.634Z,66.90
2018-12-06T18:38:14.398Z,68.10
2018-12-06T18:40:16.846Z,63.63
2018-12-06T18:42:19.410Z,66.90
2018-12-06T18:44:21.616Z,74.17
2018-12-06T18:46:23.812Z,74.10
2018-12-06T18:48:26.185Z,74.70
2018-12-06T18:50:28.512Z,71.73
2018-12-06T18:52:30.694Z,70.73
2018-12-06T18:54:33.196Z,81.70
2018-12-06T18:56:35.466Z,72.07
2018-12-06T18:58:37.662Z,74.93
2018-12-06T19:00:40.392Z,66.00
2018-12-06T19:02:42.688Z,74.40
2018-12-06T19:04:44.869Z,75.33
2018-12-06T19:06:47.162Z,64.33
2018-12-06T19:08:49.445Z,67.67
2018-12-06T19:10:51.648Z,66.97
2018-12-06T19:12:53.965Z,69.03
2018-12-06T19:14:56.177Z,75.83
2018-12-06T19:16:58.493Z,79.73
2018-12-06T19:19:00.904Z,73.23
2018-12-06T19:21:03.309Z,71.00
2018-12-06T22:34:37.112Z,83.17
2018-12-06T22:36:39.341Z,67.17
2018-12-06T22:38:41.620Z,77.40
2018-12-06T22:40:43.863Z,78.70
2018-12-06T22:42:46.101Z,90.33
2018-12-06T22:44:48.377Z,59.83
2018-12-06T22:46:50.605Z,75.37
2018-12-06T22:48:52.964Z,84.10
2018-12-06T22:50:55.410Z,73.90
2018-12-06T22:52:57.644Z,70.87
2018-12-06T22:54:59.951Z,71.20
2018-12-06T22:57:02.223Z,78.67
2018-12-06T22:59:04.575Z,75.50
2018-12-06T23:01:09.356Z,89.33
2018-12-06T23:03:12.175Z,83.57
2018-12-06T23:05:14.400Z,77.23
2018-12-06T23:07:16.651Z,96.53
2018-12-06T23:09:18.908Z,67.33
2018-12-06T23:11:21.267Z,90.87
2018-12-06T23:13:23.506Z,75.00
2018-12-06T23:15:26.057Z,79.53
2018-12-06T23:17:28.295Z,84.53
2018-12-06T23:19:30.538Z,73.93
2018-12-06T23:21:33.160Z,77.83
2018-12-06T23:23:35.382Z,93.63
2018-12-06T23:25:37.615Z,85.77
2018-12-06T23:27:39.851Z,88.37
2018-12-06T23:29:42.071Z,81.20
2018-12-06T23:31:44.199Z,86.17
2018-12-06T23:33:46.463Z,87.10
2018-12-06T23:35:48.592Z,80.63
2018-12-06T23:37:50.823Z,84.60
2018-12-06T23:39:53.160Z,75.77
2018-12-06T23:41:55.396Z,83.90
2018-12-06T23:43:57.510Z,79.10
2018-12-06T23:45:59.668Z,93.50
2018-12-06T23:48:01.912Z,60.87
2018-12-06T23:50:04.207Z,69.80
2018-12-06T23:52:07.121Z,84.70
2018-12-06T23:54:09.285Z,74.10
2018-12-06T23:56:11.528Z,70.70
2018-12-06T23:58:14.100Z,81.23
